Portada
METAR-TAF:

METAR-TAF

Aeroports :

Selma, Alabama, Estats Units d'Amèrica

latitud: 32-20-38N, longitud: 086-59-16W, altitud: 51 m

Observació

L'informe es va fer fa 11 minuts, a les 12:15 UTC
Vent 5 kt del Sud
Temperatura 17°C
Humitat 82%
Pressió 1007 hPa
Visibilitat: 14.5 km
Escasses núvols a una alçada de 1800 ft
Cel ennuvolat a una alçada de 2800 ft
Cel cobert a una alçada de 4000 ft

METAR: KSEM 311215Z AUTO 17005KT 9SM FEW018 BKN028 OVC040 17/14 A2974 RMK AO2

Hora: 07:26 (12:26 UTC)


TAF: manca

Observacions i pronòstics meteorològics de més de 4000 aeroports (METAR i TAF).

Les estacions disponibles són els punts grocs i vermells al mapa.

Posi el ratolí al punt desitjat per veure el nom de l'estació.

Feu clic per veure les observacions i els pronòstics meteorològics.

Per canviar el mapa: feu clic els botons verds amb una creu de color negre per apropar; al botó verd amb un guió per allunyar la imatge; o en les fletxes verdes per a mapes adjacents.


METAR-TAF: